Pagina principale
METAR-TAF:

METAR-TAF

Aeroporti :

Aeroporto di Napoli-Capodichino

Napoli, Italia

latitudine: 40-51N, longitudine: 014-18E, altezza: 88 m

Osservazione

Il bollettino è stato emesso 22 minuti fa, alle 18:50 UTC
Vento 7 kt da est/nord-est, variando fra nord/nord-est e est
Temperature 23°C
Umidità 36%
Pressione 1015 hPa
Visibilità 10 km o più
Nubi sparse ad un'altezza di 4000 ft

METAR: LIRN 231850Z 06007KT 030V090 9999 SCT040 23/07 Q1015 NOSIG

Ora: 21:12 (19:12 UTC)

Previsione

Il bollettino è stato emesso 2 ore e 12 minuti fa, alle 17:00 UTC
Previsione valida dal 23 alle 18 UTC al 24 alle 18 UTC
Vento 12 kt da nord-est
Visibilità 10 km o più
Poco nuvoloso ad un'altezza di 3000 ft

TAF: LIRN 231700Z 2318/2418 04012KT 9999 FEW030

Osservazioni e previsioni meteorologiche di più di 4000 aeroporti (messaggi METAR e TAF).

Le stazioni disponibili sono rappresentate dai dischi gialli e rossi sulla carta.

Puntare il mouse per vedere il nome della stazione.

Clicca sopra per visualizzare le osservazioni e previsioni meteorologiche.

Per cambiare la mappa : fare clic sui pulsanti verdi con una croce nera per ingrandire, il pulsante verde con un trattino per diminuire, o sulla freccia verde per le mappe adiacenti.


METAR-TAF: